sensor_id;sensor_type;location;lat;lon;timestamp;pressure;altitude;pressure_sealevel;temperature;humidity
74627;BME280;63132;52.268;5.192;2023-04-24T00:01:11;99668.16;;;9.11;91.07
74627;BME280;63132;52.268;5.192;2023-04-24T00:03:38;99651.41;;;9.10;91.43
74627;BME280;63132;52.268;5.192;2023-04-24T00:06:04;99649.47;;;9.13;91.00
74627;BME280;63132;52.268;5.192;2023-04-24T00:08:30;99664.25;;;9.15;91.26
74627;BME280;63132;52.268;5.192;2023-04-24T00:10:55;99660.91;;;9.03;91.91
74627;BME280;63132;52.268;5.192;2023-04-24T00:13:21;99670.13;;;8.99;92.51
74627;BME280;63132;52.268;5.192;2023-04-24T00:15:46;99676.25;;;8.99;92.55
74627;BME280;63132;52.268;5.192;2023-04-24T00:18:12;99673.91;;;8.96;92.34
74627;BME280;63132;52.268;5.192;2023-04-24T00:20:37;99691.34;;;8.89;91.82
74627;BME280;63132;52.268;5.192;2023-04-24T00:23:03;99678.78;;;8.81;91.68
74627;BME280;63132;52.268;5.192;2023-04-24T00:25:28;99698.19;;;8.72;91.56
74627;BME280;63132;52.268;5.192;2023-04-24T00:27:53;99690.50;;;8.69;91.61
74627;BME280;63132;52.268;5.192;2023-04-24T00:30:19;99703.59;;;8.60;91.77
74627;BME280;63132;52.268;5.192;2023-04-24T00:32:44;99712.06;;;8.54;91.98
74627;BME280;63132;52.268;5.192;2023-04-24T00:35:09;99725.47;;;8.52;92.20
74627;BME280;63132;52.268;5.192;2023-04-24T00:37:35;99727.28;;;8.52;92.42
74627;BME280;63132;52.268;5.192;2023-04-24T00:40:01;99732.84;;;8.49;92.14
74627;BME280;63132;52.268;5.192;2023-04-24T00:42:26;99725.59;;;8.51;92.52
74627;BME280;63132;52.268;5.192;2023-04-24T00:44:52;99727.00;;;8.55;92.91
74627;BME280;63132;52.268;5.192;2023-04-24T00:47:17;99741.09;;;8.56;92.85
74627;BME280;63132;52.268;5.192;2023-04-24T00:49:44;99741.97;;;8.56;92.68
74627;BME280;63132;52.268;5.192;2023-04-24T00:52:09;99746.53;;;8.54;92.88
74627;BME280;63132;52.268;5.192;2023-04-24T00:54:35;99742.66;;;8.58;92.66
74627;BME280;63132;52.268;5.192;2023-04-24T00:57:02;99756.34;;;8.63;92.64
74627;BME280;63132;52.268;5.192;2023-04-24T00:59:28;99760.53;;;8.56;92.62
74627;BME280;63132;52.268;5.192;2023-04-24T01:01:55;99752.56;;;8.56;93.04
74627;BME280;63132;52.268;5.192;2023-04-24T01:04:21;99766.06;;;8.53;92.72
74627;BME280;63132;52.268;5.192;2023-04-24T01:06:46;99772.63;;;8.49;92.96
74627;BME280;63132;52.268;5.192;2023-04-24T01:09:12;99782.69;;;8.55;92.91
74627;BME280;63132;52.268;5.192;2023-04-24T01:11:41;99776.78;;;8.41;93.04
74627;BME280;63132;52.268;5.192;2023-04-24T01:14:07;99781.09;;;8.43;93.23
74627;BME280;63132;52.268;5.192;2023-04-24T01:16:32;99785.69;;;8.40;92.91
74627;BME280;63132;52.268;5.192;2023-04-24T01:18:58;99782.78;;;8.44;93.14
74627;BME280;63132;52.268;5.192;2023-04-24T01:21:26;99786.38;;;8.43;92.86
74627;BME280;63132;52.268;5.192;2023-04-24T01:23:53;99786.16;;;8.46;92.62
74627;BME280;63132;52.268;5.192;2023-04-24T01:26:19;99784.88;;;8.40;92.29
74627;BME280;63132;52.268;5.192;2023-04-24T01:28:45;99786.25;;;8.34;92.13
74627;BME280;63132;52.268;5.192;2023-04-24T01:31:11;99794.19;;;8.34;92.47
74627;BME280;63132;52.268;5.192;2023-04-24T01:33:36;99791.34;;;8.26;92.51
74627;BME280;63132;52.268;5.192;2023-04-24T01:36:02;99796.13;;;8.32;92.62
74627;BME280;63132;52.268;5.192;2023-04-24T01:38:27;99787.75;;;8.37;92.58
74627;BME280;63132;52.268;5.192;2023-04-24T01:40:53;99784.41;;;8.35;92.87
74627;BME280;63132;52.268;5.192;2023-04-24T01:43:19;99789.41;;;8.28;92.47
74627;BME280;63132;52.268;5.192;2023-04-24T01:45:44;99789.28;;;8.29;92.80
74627;BME280;63132;52.268;5.192;2023-04-24T01:48:11;99795.56;;;8.38;92.93
74627;BME280;63132;52.268;5.192;2023-04-24T01:50:37;99789.41;;;8.28;92.95
74627;BME280;63132;52.268;5.192;2023-04-24T01:53:02;99791.53;;;8.34;93.17
74627;BME280;63132;52.268;5.192;2023-04-24T01:55:28;99802.66;;;8.28;93.05
74627;BME280;63132;52.268;5.192;2023-04-24T01:57:55;99802.91;;;8.25;93.08
74627;BME280;63132;52.268;5.192;2023-04-24T02:00:21;99804.78;;;8.34;93.01
74627;BME280;63132;52.268;5.192;2023-04-24T02:02:47;99807.38;;;8.24;92.54
74627;BME280;63132;52.268;5.192;2023-04-24T02:05:12;99809.47;;;8.21;92.37
74627;BME280;63132;52.268;5.192;2023-04-24T02:07:37;99801.09;;;8.25;92.54
74627;BME280;63132;52.268;5.192;2023-04-24T02:10:03;99807.25;;;8.26;92.13
74627;BME280;63132;52.268;5.192;2023-04-24T02:12:29;99804.47;;;8.27;92.36
74627;BME280;63132;52.268;5.192;2023-04-24T02:14:54;99810.28;;;8.21;91.59
74627;BME280;63132;52.268;5.192;2023-04-24T02:17:20;99806.81;;;8.21;91.39
74627;BME280;63132;52.268;5.192;2023-04-24T02:19:45;99807.84;;;8.08;91.26
74627;BME280;63132;52.268;5.192;2023-04-24T02:22:11;99806.19;;;8.07;90.79
74627;BME280;63132;52.268;5.192;2023-04-24T02:24:37;99808.84;;;8.07;90.81
74627;BME280;63132;52.268;5.192;2023-04-24T02:27:02;99817.50;;;8.09;90.97
74627;BME280;63132;52.268;5.192;2023-04-24T02:29:28;99816.06;;;8.05;90.81
74627;BME280;63132;52.268;5.192;2023-04-24T02:31:53;99814.91;;;7.98;90.84
74627;BME280;63132;52.268;5.192;2023-04-24T02:34:19;99818.53;;;7.97;90.86
74627;BME280;63132;52.268;5.192;2023-04-24T02:36:44;99810.28;;;7.90;90.67
74627;BME280;63132;52.268;5.192;2023-04-24T02:39:09;99814.91;;;7.76;90.46
74627;BME280;63132;52.268;5.192;2023-04-24T02:41:35;99811.63;;;7.84;91.10
74627;BME280;63132;52.268;5.192;2023-04-24T02:44:00;99821.22;;;7.85;90.98
74627;BME280;63132;52.268;5.192;2023-04-24T02:46:25;99818.34;;;7.88;90.73
74627;BME280;63132;52.268;5.192;2023-04-24T02:48:51;99825.00;;;7.82;91.09
74627;BME280;63132;52.268;5.192;2023-04-24T02:51:16;99825.09;;;7.81;90.57
74627;BME280;63132;52.268;5.192;2023-04-24T02:53:41;99819.06;;;7.90;91.00
74627;BME280;63132;52.268;5.192;2023-04-24T02:56:07;99819.50;;;7.96;90.70
74627;BME280;63132;52.268;5.192;2023-04-24T02:58:32;99820.41;;;7.85;90.60
74627;BME280;63132;52.268;5.192;2023-04-24T03:00:58;99817.44;;;7.78;91.29
74627;BME280;63132;52.268;5.192;2023-04-24T03:03:23;99825.19;;;7.91;92.08
74627;BME280;63132;52.268;5.192;2023-04-24T03:05:49;99814.72;;;7.89;91.79
74627;BME280;63132;52.268;5.192;2023-04-24T03:08:15;99810.13;;;7.91;91.96
74627;BME280;63132;52.268;5.192;2023-04-24T03:10:40;99813.50;;;7.93;91.74
74627;BME280;63132;52.268;5.192;2023-04-24T03:13:06;99814.06;;;7.97;91.59
74627;BME280;63132;52.268;5.192;2023-04-24T03:15:31;99820.47;;;7.94;91.56
74627;BME280;63132;52.268;5.192;2023-04-24T03:17:56;99820.59;;;7.93;91.48
74627;BME280;63132;52.268;5.192;2023-04-24T03:20:22;99820.34;;;7.96;91.67
74627;BME280;63132;52.268;5.192;2023-04-24T03:22:47;99818.06;;;7.91;91.40
74627;BME280;63132;52.268;5.192;2023-04-24T03:25:12;99818.28;;;8.00;91.56
74627;BME280;63132;52.268;5.192;2023-04-24T03:27:38;99817.00;;;7.94;91.32
74627;BME280;63132;52.268;5.192;2023-04-24T03:30:04;99814.44;;;7.92;91.34
74627;BME280;63132;52.268;5.192;2023-04-24T03:32:30;99809.03;;;7.94;91.20
74627;BME280;63132;52.268;5.192;2023-04-24T03:34:57;99820.53;;;7.83;91.01
74627;BME280;63132;52.268;5.192;2023-04-24T03:37:22;99819.31;;;7.87;91.43
74627;BME280;63132;52.268;5.192;2023-04-24T03:39:48;99817.69;;;7.75;91.67
74627;BME280;63132;52.268;5.192;2023-04-24T03:42:13;99819.88;;;7.91;91.86
74627;BME280;63132;52.268;5.192;2023-04-24T03:44:38;99818.72;;;7.84;91.42
74627;BME280;63132;52.268;5.192;2023-04-24T03:47:04;99821.00;;;7.88;91.90
74627;BME280;63132;52.268;5.192;2023-04-24T03:49:29;99810.91;;;7.82;92.01
74627;BME280;63132;52.268;5.192;2023-04-24T03:51:54;99809.63;;;7.98;91.77
74627;BME280;63132;52.268;5.192;2023-04-24T03:54:20;99807.94;;;7.97;91.85
74627;BME280;63132;52.268;5.192;2023-04-24T03:56:45;99815.13;;;7.85;91.75
74627;BME280;63132;52.268;5.192;2023-04-24T03:59:11;99821.09;;;7.87;92.04
74627;BME280;63132;52.268;5.192;2023-04-24T04:01:36;99818.53;;;7.97;92.35
74627;BME280;63132;52.268;5.192;2023-04-24T04:04:11;99817.44;;;7.99;92.13
74627;BME280;63132;52.268;5.192;2023-04-24T04:06:36;99824.97;;;8.04;92.01
74627;BME280;63132;52.268;5.192;2023-04-24T04:09:02;99833.63;;;8.06;92.21
74627;BME280;63132;52.268;5.192;2023-04-24T04:11:28;99837.06;;;7.97;91.96
74627;BME280;63132;52.268;5.192;2023-04-24T04:13:53;99842.91;;;7.90;92.00
74627;BME280;63132;52.268;5.192;2023-04-24T04:16:19;99837.97;;;7.86;92.55
74627;BME280;63132;52.268;5.192;2023-04-24T04:18:44;99841.91;;;7.91;92.53
74627;BME280;63132;52.268;5.192;2023-04-24T04:21:10;99857.03;;;8.01;92.81
74627;BME280;63132;52.268;5.192;2023-04-24T04:23:36;99854.00;;;8.05;92.31
74627;BME280;63132;52.268;5.192;2023-04-24T04:26:02;99855.09;;;8.03;91.98
74627;BME280;63132;52.268;5.192;2023-04-24T04:28:28;99859.97;;;8.08;92.35
74627;BME280;63132;52.268;5.192;2023-04-24T04:30:56;99861.25;;;8.03;92.21
74627;BME280;63132;52.268;5.192;2023-04-24T04:33:23;99868.34;;;8.03;92.21
74627;BME280;63132;52.268;5.192;2023-04-24T04:35:48;99868.47;;;8.01;92.42
74627;BME280;63132;52.268;5.192;2023-04-24T04:38:15;99868.66;;;8.10;92.38
74627;BME280;63132;52.268;5.192;2023-04-24T04:40:42;99867.56;;;8.12;92.42
74627;BME280;63132;52.268;5.192;2023-04-24T04:43:07;99883.16;;;8.05;92.38
74627;BME280;63132;52.268;5.192;2023-04-24T04:45:33;99888.75;;;8.12;92.32
74627;BME280;63132;52.268;5.192;2023-04-24T04:47:59;99892.91;;;8.05;92.26
74627;BME280;63132;52.268;5.192;2023-04-24T04:50:28;99883.97;;;8.06;92.15
74627;BME280;63132;52.268;5.192;2023-04-24T04:52:54;99890.03;;;7.97;91.92
74627;BME280;63132;52.268;5.192;2023-04-24T04:55:19;99891.16;;;7.94;91.82
74627;BME280;63132;52.268;5.192;2023-04-24T04:57:45;99895.16;;;7.88;92.37
74627;BME280;63132;52.268;5.192;2023-04-24T05:00:11;99898.75;;;7.87;91.63
74627;BME280;63132;52.268;5.192;2023-04-24T05:02:38;99901.41;;;7.87;91.60
74627;BME280;63132;52.268;5.192;2023-04-24T05:05:05;99905.06;;;7.75;91.20
74627;BME280;63132;52.268;5.192;2023-04-24T05:07:31;99906.59;;;7.77;91.64
74627;BME280;63132;52.268;5.192;2023-04-24T05:09:56;99912.63;;;7.79;91.56
74627;BME280;63132;52.268;5.192;2023-04-24T05:12:21;99910.94;;;7.78;91.72
74627;BME280;63132;52.268;5.192;2023-04-24T05:14:47;99912.78;;;7.66;91.17
74627;BME280;63132;52.268;5.192;2023-04-24T05:17:12;99919.78;;;7.67;91.16
74627;BME280;63132;52.268;5.192;2023-04-24T05:19:37;99920.44;;;7.81;91.28
74627;BME280;63132;52.268;5.192;2023-04-24T05:22:03;99924.94;;;7.69;91.13
74627;BME280;63132;52.268;5.192;2023-04-24T05:24:31;99932.03;;;7.68;91.09
74627;BME280;63132;52.268;5.192;2023-04-24T05:26:57;99943.63;;;7.67;91.74
74627;BME280;63132;52.268;5.192;2023-04-24T05:29:23;99946.50;;;7.64;92.09
74627;BME280;63132;52.268;5.192;2023-04-24T05:31:49;99957.03;;;7.76;92.24
74627;BME280;63132;52.268;5.192;2023-04-24T05:34:14;99950.28;;;7.83;91.40
74627;BME280;63132;52.268;5.192;2023-04-24T05:36:41;99944.06;;;7.73;91.32
74627;BME280;63132;52.268;5.192;2023-04-24T05:39:07;99955.16;;;7.66;91.75
74627;BME280;63132;52.268;5.192;2023-04-24T05:41:33;99959.00;;;7.62;93.35
74627;BME280;63132;52.268;5.192;2023-04-24T05:43:59;99966.75;;;7.54;93.44
74627;BME280;63132;52.268;5.192;2023-04-24T05:46:24;99973.00;;;7.53;93.57
74627;BME280;63132;52.268;5.192;2023-04-24T05:48:50;99978.28;;;7.53;93.57
74627;BME280;63132;52.268;5.192;2023-04-24T05:51:15;99976.22;;;7.56;93.99
74627;BME280;63132;52.268;5.192;2023-04-24T05:53:40;99979.59;;;7.58;93.74
74627;BME280;63132;52.268;5.192;2023-04-24T05:56:06;99981.50;;;7.68;94.14
74627;BME280;63132;52.268;5.192;2023-04-24T05:58:31;99998.00;;;7.60;93.75
74627;BME280;63132;52.268;5.192;2023-04-24T06:00:56;99993.31;;;7.52;93.37
74627;BME280;63132;52.268;5.192;2023-04-24T06:03:24;100005.13;;;7.48;93.11
74627;BME280;63132;52.268;5.192;2023-04-24T06:05:50;100017.88;;;7.43;93.46
74627;BME280;63132;52.268;5.192;2023-04-24T06:08:16;100025.09;;;7.41;94.04
74627;BME280;63132;52.268;5.192;2023-04-24T06:10:41;100035.06;;;7.37;94.70
74627;BME280;63132;52.268;5.192;2023-04-24T06:13:07;100042.06;;;7.38;94.83
74627;BME280;63132;52.268;5.192;2023-04-24T06:15:32;100034.97;;;7.27;94.95
74627;BME280;63132;52.268;5.192;2023-04-24T06:17:58;100048.06;;;7.17;95.66
74627;BME280;63132;52.268;5.192;2023-04-24T06:20:24;100078.63;;;7.21;95.96
74627;BME280;63132;52.268;5.192;2023-04-24T06:22:49;100075.13;;;7.09;96.31
74627;BME280;63132;52.268;5.192;2023-04-24T06:25:14;100077.97;;;8.43;95.39
74627;BME280;63132;52.268;5.192;2023-04-24T06:27:40;100078.84;;;7.18;96.04
74627;BME280;63132;52.268;5.192;2023-04-24T06:30:06;100090.50;;;7.04;97.53
74627;BME280;63132;52.268;5.192;2023-04-24T06:32:32;100093.25;;;7.03;98.03
74627;BME280;63132;52.268;5.192;2023-04-24T06:34:57;100106.97;;;6.96;98.27
74627;BME280;63132;52.268;5.192;2023-04-24T06:37:23;100104.22;;;8.01;98.65
74627;BME280;63132;52.268;5.192;2023-04-24T06:39:49;100104.31;;;10.44;97.27
74627;BME280;63132;52.268;5.192;2023-04-24T06:42:14;100114.78;;;8.13;95.91
74627;BME280;63132;52.268;5.192;2023-04-24T06:44:40;100116.63;;;7.32;96.77
74627;BME280;63132;52.268;5.192;2023-04-24T06:47:11;100133.13;;;7.58;96.84
74627;BME280;63132;52.268;5.192;2023-04-24T06:49:39;100135.59;;;7.14;97.43
74627;BME280;63132;52.268;5.192;2023-04-24T06:52:05;100146.66;;;7.08;97.34
74627;BME280;63132;52.268;5.192;2023-04-24T06:54:31;100148.56;;;7.06;97.40
74627;BME280;63132;52.268;5.192;2023-04-24T06:56:56;100155.97;;;6.89;97.78
74627;BME280;63132;52.268;5.192;2023-04-24T06:59:23;100161.75;;;6.94;98.06
74627;BME280;63132;52.268;5.192;2023-04-24T07:01:49;100165.63;;;7.02;98.29
74627;BME280;63132;52.268;5.192;2023-04-24T07:04:14;100168.34;;;7.25;98.46
74627;BME280;63132;52.268;5.192;2023-04-24T07:06:40;100175.31;;;7.37;98.31
74627;BME280;63132;52.268;5.192;2023-04-24T07:09:05;100175.31;;;7.26;98.19
74627;BME280;63132;52.268;5.192;2023-04-24T07:11:30;100185.78;;;7.27;98.32
74627;BME280;63132;52.268;5.192;2023-04-24T07:13:56;100191.09;;;7.03;99.00
74627;BME280;63132;52.268;5.192;2023-04-24T07:16:22;100194.47;;;7.05;99.70
74627;BME280;63132;52.268;5.192;2023-04-24T07:18:47;64071.53;;;-148.47;5.05
74627;BME280;63132;52.268;5.192;2023-04-24T07:21:12;64071.53;;;-148.47;100.00
74627;BME280;63132;52.268;5.192;2023-04-24T07:23:38;100214.25;;;7.60;100.00
74627;BME280;63132;52.268;5.192;2023-04-24T07:26:03;100221.88;;;7.28;100.00
74627;BME280;63132;52.268;5.192;2023-04-24T07:28:29;100209.25;;;7.32;100.00
74627;BME280;63132;52.268;5.192;2023-04-24T07:30:57;100220.81;;;7.31;100.00
74627;BME280;63132;52.268;5.192;2023-04-24T07:33:25;100221.63;;;7.31;100.00
74627;BME280;63132;52.268;5.192;2023-04-24T07:35:50;100230.28;;;7.33;100.00
74627;BME280;63132;52.268;5.192;2023-04-24T07:38:15;100232.03;;;7.46;99.50
74627;BME280;63132;52.268;5.192;2023-04-24T07:40:41;100232.97;;;7.45;99.05
74627;BME280;63132;52.268;5.192;2023-04-24T07:43:06;100250.66;;;7.44;98.03
74627;BME280;63132;52.268;5.192;2023-04-24T07:45:31;100253.06;;;7.48;97.25
74627;BME280;63132;52.268;5.192;2023-04-24T07:48:01;100263.88;;;7.33;95.93
74627;BME280;63132;52.268;5.192;2023-04-24T07:50:26;100261.69;;;7.27;95.06
74627;BME280;63132;52.268;5.192;2023-04-24T07:52:51;100268.38;;;7.19;94.24
74627;BME280;63132;52.268;5.192;2023-04-24T07:55:17;100272.50;;;7.24;93.84
74627;BME280;63132;52.268;5.192;2023-04-24T07:57:42;100274.91;;;7.27;93.61
74627;BME280;63132;52.268;5.192;2023-04-24T08:00:08;100282.59;;;7.30;92.92
74627;BME280;63132;52.268;5.192;2023-04-24T08:02:34;100287.41;;;7.25;92.50
74627;BME280;63132;52.268;5.192;2023-04-24T08:04:59;100298.31;;;7.20;92.03
74627;BME280;63132;52.268;5.192;2023-04-24T08:07:25;100294.03;;;7.30;92.30
74627;BME280;63132;52.268;5.192;2023-04-24T08:09:50;100308.28;;;7.16;92.39
74627;BME280;63132;52.268;5.192;2023-04-24T08:12:15;100319.09;;;7.13;92.62
74627;BME280;63132;52.268;5.192;2023-04-24T08:14:41;100316.34;;;7.15;92.78
74627;BME280;63132;52.268;5.192;2023-04-24T08:17:06;100322.72;;;6.99;92.11
74627;BME280;63132;52.268;5.192;2023-04-24T08:19:31;100335.63;;;7.04;92.18
74627;BME280;63132;52.268;5.192;2023-04-24T08:21:57;100339.63;;;7.09;92.11
74627;BME280;63132;52.268;5.192;2023-04-24T08:24:22;100341.66;;;7.06;92.23
74627;BME280;63132;52.268;5.192;2023-04-24T08:26:48;100350.34;;;7.08;92.10
74627;BME280;63132;52.268;5.192;2023-04-24T08:29:15;100364.28;;;7.10;90.96
74627;BME280;63132;52.268;5.192;2023-04-24T08:31:41;100357.81;;;7.14;90.16
74627;BME280;63132;52.268;5.192;2023-04-24T08:34:06;100363.22;;;7.13;89.82
74627;BME280;63132;52.268;5.192;2023-04-24T08:36:32;100370.91;;;7.29;89.96
74627;BME280;63132;52.268;5.192;2023-04-24T08:38:57;100365.81;;;7.26;90.14
74627;BME280;63132;52.268;5.192;2023-04-24T08:41:23;100375.78;;;7.22;88.75
74627;BME280;63132;52.268;5.192;2023-04-24T08:43:51;100383.03;;;7.31;88.53
74627;BME280;63132;52.268;5.192;2023-04-24T08:46:18;100380.94;;;7.37;86.84
74627;BME280;63132;52.268;5.192;2023-04-24T08:48:44;100375.91;;;7.45;85.93
74627;BME280;63132;52.268;5.192;2023-04-24T08:51:10;100394.03;;;7.63;85.00
74627;BME280;63132;52.268;5.192;2023-04-24T08:53:36;100398.72;;;7.59;84.10
74627;BME280;63132;52.268;5.192;2023-04-24T08:56:02;100403.31;;;7.68;83.40
74627;BME280;63132;52.268;5.192;2023-04-24T08:58:28;100394.41;;;7.69;83.76
74627;BME280;63132;52.268;5.192;2023-04-24T09:00:57;100404.78;;;7.73;83.27
74627;BME280;63132;52.268;5.192;2023-04-24T09:03:23;100413.47;;;7.75;83.33
74627;BME280;63132;52.268;5.192;2023-04-24T09:05:50;100410.66;;;7.65;83.01
74627;BME280;63132;52.268;5.192;2023-04-24T09:08:19;100413.75;;;7.58;83.30
74627;BME280;63132;52.268;5.192;2023-04-24T09:10:45;100418.09;;;7.60;83.17
74627;BME280;63132;52.268;5.192;2023-04-24T09:13:10;100420.28;;;7.41;82.29
74627;BME280;63132;52.268;5.192;2023-04-24T09:15:37;100430.16;;;7.26;82.55
74627;BME280;63132;52.268;5.192;2023-04-24T09:18:02;100430.59;;;7.20;81.92
74627;BME280;63132;52.268;5.192;2023-04-24T09:20:28;100431.69;;;7.17;82.45
74627;BME280;63132;52.268;5.192;2023-04-24T09:22:54;100436.34;;;7.14;80.60
74627;BME280;63132;52.268;5.192;2023-04-24T09:25:20;100440.28;;;7.08;80.95
74627;BME280;63132;52.268;5.192;2023-04-24T09:27:46;100441.91;;;7.22;80.60
74627;BME280;63132;52.268;5.192;2023-04-24T09:30:12;100448.81;;;7.25;81.27
74627;BME280;63132;52.268;5.192;2023-04-24T09:32:38;100450.91;;;7.32;78.46
74627;BME280;63132;52.268;5.192;2023-04-24T09:35:14;100449.81;;;7.48;79.42
74627;BME280;63132;52.268;5.192;2023-04-24T09:37:42;100458.63;;;7.60;79.23
74627;BME280;63132;52.268;5.192;2023-04-24T09:40:09;100460.53;;;7.58;77.90
74627;BME280;63132;52.268;5.192;2023-04-24T09:42:36;100459.53;;;7.72;78.07
74627;BME280;63132;52.268;5.192;2023-04-24T09:45:02;100469.31;;;7.96;78.66
74627;BME280;63132;52.268;5.192;2023-04-24T09:47:27;100464.13;;;8.06;77.62
74627;BME280;63132;52.268;5.192;2023-04-24T09:49:57;100472.41;;;8.26;77.58
74627;BME280;63132;52.268;5.192;2023-04-24T09:52:23;100472.94;;;8.54;77.69
74627;BME280;63132;52.268;5.192;2023-04-24T09:54:53;100474.22;;;8.84;76.36
74627;BME280;63132;52.268;5.192;2023-04-24T09:57:19;100478.47;;;8.87;76.51
74627;BME280;63132;52.268;5.192;2023-04-24T09:59:46;100488.97;;;8.52;76.04
74627;BME280;63132;52.268;5.192;2023-04-24T10:02:18;100487.66;;;8.47;77.20
74627;BME280;63132;52.268;5.192;2023-04-24T10:04:54;100490.78;;;8.16;74.85
74627;BME280;63132;52.268;5.192;2023-04-24T10:07:20;100495.53;;;8.24;75.15
74627;BME280;63132;52.268;5.192;2023-04-24T10:09:46;100499.88;;;8.61;74.21
74627;BME280;63132;52.268;5.192;2023-04-24T10:12:12;100484.50;;;8.89;73.50
74627;BME280;63132;52.268;5.192;2023-04-24T10:14:38;100486.16;;;9.36;73.54
74627;BME280;63132;52.268;5.192;2023-04-24T10:17:04;100494.72;;;9.40;72.79
74627;BME280;63132;52.268;5.192;2023-04-24T10:19:30;100488.13;;;9.78;71.00
74627;BME280;63132;52.268;5.192;2023-04-24T10:21:56;100496.38;;;9.64;68.08
74627;BME280;63132;52.268;5.192;2023-04-24T10:24:22;100499.47;;;9.80;68.75
74627;BME280;63132;52.268;5.192;2023-04-24T10:26:47;100495.88;;;9.58;69.33
74627;BME280;63132;52.268;5.192;2023-04-24T10:29:14;100505.84;;;9.33;70.48
74627;BME280;63132;52.268;5.192;2023-04-24T10:31:40;100519.59;;;9.16;69.96
74627;BME280;63132;52.268;5.192;2023-04-24T10:34:07;100512.56;;;9.15;71.08
74627;BME280;63132;52.268;5.192;2023-04-24T10:36:34;100528.88;;;9.10;71.10
74627;BME280;63132;52.268;5.192;2023-04-24T10:39:02;100519.94;;;8.99;68.84
74627;BME280;63132;52.268;5.192;2023-04-24T10:41:30;100524.59;;;8.73;71.61
74627;BME280;63132;52.268;5.192;2023-04-24T10:44:15;100536.72;;;8.52;73.34
74627;BME280;63132;52.268;5.192;2023-04-24T10:46:53;100546.88;;;8.59;73.83
74627;BME280;63132;52.268;5.192;2023-04-24T10:49:27;100552.59;;;8.88;73.94
74627;BME280;63132;52.268;5.192;2023-04-24T10:51:54;100553.50;;;9.23;73.28
74627;BME280;63132;52.268;5.192;2023-04-24T10:54:44;100552.66;;;9.46;71.27
74627;BME280;63132;52.268;5.192;2023-04-24T10:57:28;100559.16;;;9.42;71.81
74627;BME280;63132;52.268;5.192;2023-04-24T11:00:29;100553.03;;;9.30;69.89
74627;BME280;63132;52.268;5.192;2023-04-24T11:02:54;100557.47;;;9.41;71.91
74627;BME280;63132;52.268;5.192;2023-04-24T11:05:21;100563.72;;;9.17;72.45
74627;BME280;63132;52.268;5.192;2023-04-24T11:08:16;100560.34;;;9.49;70.56
74627;BME280;63132;52.268;5.192;2023-04-24T11:10:46;100561.94;;;9.63;69.99
74627;BME280;63132;52.268;5.192;2023-04-24T11:13:16;100563.72;;;9.63;68.88
74627;BME280;63132;52.268;5.192;2023-04-24T11:15:42;100567.09;;;9.65;68.43
74627;BME280;63132;52.268;5.192;2023-04-24T11:18:13;100555.84;;;9.84;67.24
74627;BME280;63132;52.268;5.192;2023-04-24T11:20:42;100573.38;;;9.75;67.21
74627;BME280;63132;52.268;5.192;2023-04-24T11:23:07;100565.19;;;9.67;67.54
74627;BME280;63132;52.268;5.192;2023-04-24T11:25:35;100566.00;;;9.90;67.49
74627;BME280;63132;52.268;5.192;2023-04-24T11:28:04;100560.47;;;10.59;67.35
74627;BME280;63132;52.268;5.192;2023-04-24T11:30:31;100567.75;;;10.46;64.06
74627;BME280;63132;52.268;5.192;2023-04-24T11:33:02;100565.66;;;10.82;64.25
74627;BME280;63132;52.268;5.192;2023-04-24T11:35:29;100570.06;;;10.93;62.42
74627;BME280;63132;52.268;5.192;2023-04-24T11:37:55;100567.13;;;10.96;63.36
74627;BME280;63132;52.268;5.192;2023-04-24T11:40:22;100567.47;;;10.82;62.23
74627;BME280;63132;52.268;5.192;2023-04-24T11:42:50;100579.47;;;10.97;62.25
74627;BME280;63132;52.268;5.192;2023-04-24T11:45:23;100582.78;;;11.21;62.91
74627;BME280;63132;52.268;5.192;2023-04-24T11:47:49;100585.16;;;10.71;62.32
74627;BME280;63132;52.268;5.192;2023-04-24T11:50:16;100582.06;;;10.66;62.27
74627;BME280;63132;52.268;5.192;2023-04-24T11:52:44;100599.78;;;10.98;61.82
74627;BME280;63132;52.268;5.192;2023-04-24T11:57:59;100603.16;;;10.79;60.26
74627;BME280;63132;52.268;5.192;2023-04-24T12:00:30;100603.78;;;10.71;59.77
74627;BME280;63132;52.268;5.192;2023-04-24T12:03:09;100608.13;;;11.15;58.96
74627;BME280;63132;52.268;5.192;2023-04-24T12:05:35;100605.81;;;11.22;58.88
74627;BME280;63132;52.268;5.192;2023-04-24T12:08:00;100607.41;;;11.66;57.31
74627;BME280;63132;52.268;5.192;2023-04-24T12:10:28;100621.53;;;11.56;56.25
74627;BME280;63132;52.268;5.192;2023-04-24T12:12:56;100619.16;;;11.63;57.13
74627;BME280;63132;52.268;5.192;2023-04-24T12:15:22;100617.09;;;11.77;55.59
74627;BME280;63132;52.268;5.192;2023-04-24T12:17:47;100628.84;;;11.64;54.16
74627;BME280;63132;52.268;5.192;2023-04-24T12:20:14;100622.56;;;11.44;55.94
74627;BME280;63132;52.268;5.192;2023-04-24T12:22:56;100638.00;;;10.76;57.06
74627;BME280;63132;52.268;5.192;2023-04-24T12:25:27;100647.22;;;10.16;58.98
74627;BME280;63132;52.268;5.192;2023-04-24T12:27:55;100647.97;;;10.06;60.62
74627;BME280;63132;52.268;5.192;2023-04-24T12:30:21;100660.88;;;9.31;65.48
74627;BME280;63132;52.268;5.192;2023-04-24T12:32:49;100673.59;;;8.91;71.27
74627;BME280;63132;52.268;5.192;2023-04-24T12:35:23;100676.00;;;8.45;73.53
74627;BME280;63132;52.268;5.192;2023-04-24T12:37:49;100683.91;;;8.21;73.06
74627;BME280;63132;52.268;5.192;2023-04-24T12:40:15;100691.66;;;8.24;73.27
74627;BME280;63132;52.268;5.192;2023-04-24T12:42:45;100691.72;;;7.98;73.30
74627;BME280;63132;52.268;5.192;2023-04-24T12:45:11;100695.84;;;8.02;73.02
74627;BME280;63132;52.268;5.192;2023-04-24T12:47:37;100688.41;;;8.07;72.33
74627;BME280;63132;52.268;5.192;2023-04-24T12:50:03;100695.81;;;8.15;71.94
74627;BME280;63132;52.268;5.192;2023-04-24T12:52:29;100698.41;;;8.66;70.45
74627;BME280;63132;52.268;5.192;2023-04-24T12:54:59;100686.91;;;9.14;68.75
74627;BME280;63132;52.268;5.192;2023-04-24T12:57:26;100688.41;;;9.41;67.23
74627;BME280;63132;52.268;5.192;2023-04-24T12:59:56;100691.34;;;9.73;65.93
74627;BME280;63132;52.268;5.192;2023-04-24T13:02:27;100695.34;;;10.01;65.03
74627;BME280;63132;52.268;5.192;2023-04-24T13:04:53;100693.66;;;9.89;63.48